Sharps, Virginia
Current Conditions -  °F | °C
As of 3:35 AM on Sunday 23 Nov 2014 (Local Time) from KXSA Reporting Station
Clear Clear  
Wind Chill: 33°   Ceiling: Unl
Heat Index: 37°   Visibility: 10mi
Dew Point: 14°   Wind: 5mph
Humidity: 40%   Direction: 160°SSE
Pressure: 30.27"   Gusts: NA
Location:  37.82°N, 76.7°W
Report Text: KXSA 230835Z AUTO 16004KT 10SM CLR 03/M10 A3027 RMK AO2 T00251098
Loading
Personal Weather Stations






























Interactive Weather Map New forecast layout! Learn more

10-Day Weather Forecast

Advertisements
Track Severe Weather on mobile